createdAt,value
2022-11-28T00:01:23.372Z,10.52
2022-11-28T00:03:50.124Z,11.52
2022-11-28T00:06:18.186Z,9.63
2022-11-28T00:08:45.222Z,9.48
2022-11-28T00:11:14.823Z,9.35
2022-11-28T00:13:42.248Z,10.43
2022-11-28T00:16:14.725Z,10.57
2022-11-28T00:18:41.471Z,11.55
2022-11-28T00:21:11.366Z,9.57
2022-11-28T00:23:38.709Z,9.75
2022-11-28T00:26:17.513Z,11.57
2022-11-28T00:28:44.156Z,10.07
2022-11-28T00:31:19.346Z,9.65
2022-11-28T00:33:45.964Z,9.35
2022-11-28T00:36:13.775Z,12.35
2022-11-28T00:38:40.748Z,8.27
2022-11-28T00:41:10.532Z,9.75
2022-11-28T00:43:37.820Z,8.52
2022-11-28T00:46:04.808Z,11.00
2022-11-28T00:48:33.263Z,10.23
2022-11-28T00:51:22.198Z,9.60
2022-11-28T00:53:50.654Z,9.43
2022-11-28T00:56:20.305Z,10.35
2022-11-28T00:58:49.504Z,8.20
2022-11-28T01:01:20.894Z,8.50
2022-11-28T01:03:49.472Z,8.80
2022-11-28T01:06:28.849Z,9.95
2022-11-28T01:08:56.145Z,9.95
2022-11-28T01:11:23.011Z,10.10
2022-11-28T01:13:49.725Z,9.90
2022-11-28T01:16:16.986Z,8.90
2022-11-28T01:18:43.645Z,9.02
2022-11-28T01:21:10.556Z,10.00
2022-11-28T01:23:37.833Z,8.88
2022-11-28T01:26:06.262Z,11.13
2022-11-28T01:28:33.635Z,11.07
2022-11-28T01:31:05.989Z,9.00
2022-11-28T01:33:32.779Z,9.98
2022-11-28T01:36:00.654Z,10.80
2022-11-28T01:38:28.197Z,9.93
2022-11-28T01:40:55.768Z,9.45
2022-11-28T01:43:24.262Z,9.38
2022-11-28T01:45:51.844Z,8.85
2022-11-28T01:48:27.283Z,8.82
2022-11-28T01:50:58.555Z,10.77
2022-11-28T01:53:28.645Z,11.63
2022-11-28T01:56:00.872Z,10.57
2022-11-28T01:58:28.378Z,8.27
2022-11-28T02:00:55.609Z,11.57
2022-11-28T02:03:27.685Z,9.43
2022-11-28T02:05:54.425Z,9.70
2022-11-28T02:08:21.070Z,9.23
2022-11-28T02:11:03.693Z,9.98
2022-11-28T02:13:48.750Z,9.48
2022-11-28T02:16:51.524Z,11.57
2022-11-28T02:19:36.184Z,10.50
2022-11-28T02:22:17.621Z,10.52
2022-11-28T02:24:59.412Z,10.27
2022-11-28T02:27:47.942Z,10.02
2022-11-28T02:30:19.285Z,11.00
2022-11-28T02:33:02.411Z,10.73
2022-11-28T02:35:52.393Z,8.55
2022-11-28T02:38:22.973Z,10.73
2022-11-28T02:41:08.042Z,8.98
2022-11-28T02:43:45.176Z,8.18
2022-11-28T02:46:29.526Z,10.13
2022-11-28T02:49:03.395Z,10.90
2022-11-28T02:51:41.518Z,10.75
2022-11-28T02:54:11.066Z,8.70
2022-11-28T02:56:37.924Z,10.82
2022-11-28T02:59:18.533Z,9.13
2022-11-28T03:01:45.214Z,8.30
2022-11-28T03:04:17.966Z,11.55
2022-11-28T03:09:39.061Z,9.50
2022-11-28T03:12:33.120Z,12.00
2022-11-28T03:15:03.207Z,11.50
2022-11-28T03:18:06.871Z,9.95
2022-11-28T03:20:39.247Z,11.13
2022-11-28T03:23:11.820Z,10.15
2022-11-28T03:26:00.126Z,10.15
2022-11-28T03:28:31.144Z,10.55
2022-11-28T03:31:10.342Z,10.75
2022-11-28T03:33:39.729Z,9.48
2022-11-28T03:36:14.562Z,11.00
2022-11-28T03:38:47.996Z,10.93
2022-11-28T03:41:36.068Z,10.57
2022-11-28T03:44:16.409Z,10.60
2022-11-28T03:46:47.812Z,11.38
2022-11-28T03:49:21.452Z,10.30
2022-11-28T03:51:52.412Z,10.00
2022-11-28T03:54:36.825Z,8.68
2022-11-28T03:57:10.406Z,10.93
2022-11-28T03:59:57.323Z,8.85
2022-11-28T04:02:50.725Z,10.40
2022-11-28T04:05:26.596Z,9.98
2022-11-28T04:08:18.179Z,10.00
2022-11-28T04:10:55.483Z,9.65
2022-11-28T04:13:27.049Z,10.77
2022-11-28T04:16:04.327Z,10.20
2022-11-28T04:19:14.361Z,9.73
2022-11-28T04:21:52.179Z,11.13
2022-11-28T04:24:23.701Z,10.93
2022-11-28T04:26:58.611Z,9.63
2022-11-28T04:29:26.440Z,9.95
2022-11-28T04:31:56.571Z,11.35
2022-11-28T04:34:24.289Z,11.57
2022-11-28T04:36:53.996Z,12.88
2022-11-28T04:39:25.167Z,11.10
2022-11-28T04:41:56.419Z,11.80
2022-11-28T04:44:43.514Z,10.38
2022-11-28T04:47:11.137Z,13.38
2022-11-28T04:49:38.245Z,11.57
2022-11-28T04:52:23.274Z,11.10
2022-11-28T04:55:01.842Z,12.82
2022-11-28T04:57:56.941Z,11.95
2022-11-28T05:00:24.107Z,10.40
2022-11-28T05:02:52.800Z,12.80
2022-11-28T05:05:23.845Z,13.77
2022-11-28T05:07:50.552Z,10.43
2022-11-28T05:10:18.013Z,12.18
2022-11-28T05:12:44.676Z,10.50
2022-11-28T05:15:12.058Z,10.23
2022-11-28T05:17:42.235Z,12.25
2022-11-28T05:20:11.071Z,13.73
2022-11-28T05:22:37.692Z,13.68
2022-11-28T05:25:04.545Z,10.93
2022-11-28T05:27:31.167Z,11.30
2022-11-28T05:29:57.776Z,13.50
2022-11-28T05:32:24.398Z,9.77
2022-11-28T05:34:51.006Z,10.15
2022-11-28T05:37:17.647Z,10.27
2022-11-28T05:39:44.481Z,11.02
2022-11-28T05:42:11.259Z,11.68
2022-11-28T05:44:37.987Z,12.77
2022-11-28T05:47:04.597Z,12.38
2022-11-28T05:49:31.318Z,13.05
2022-11-28T05:51:57.874Z,11.07
2022-11-28T05:54:24.548Z,13.07
2022-11-28T05:56:51.187Z,10.32
2022-11-28T05:59:17.853Z,10.77
2022-11-28T06:01:44.525Z,11.13
2022-11-28T06:04:11.240Z,13.15
2022-11-28T06:06:37.930Z,11.07
2022-11-28T06:09:06.260Z,12.65
2022-11-28T06:11:34.622Z,11.00
2022-11-28T06:14:02.952Z,12.25
2022-11-28T06:16:31.067Z,11.85
2022-11-28T06:19:00.205Z,11.88
2022-11-28T06:21:28.237Z,13.13
2022-11-28T06:23:56.091Z,13.30
2022-11-28T06:26:24.156Z,10.98
2022-11-28T06:28:50.915Z,10.43
2022-11-28T06:31:28.185Z,12.73
2022-11-28T06:33:54.908Z,13.27
2022-11-28T06:36:21.943Z,12.65
2022-11-28T06:38:48.976Z,12.52
2022-11-28T06:41:17.890Z,11.32
2022-11-28T06:43:44.726Z,11.85
2022-11-28T06:46:16.199Z,12.80
2022-11-28T06:48:44.231Z,10.55
2022-11-28T06:51:11.409Z,14.15
2022-11-28T06:53:38.097Z,11.13
2022-11-28T06:56:14.057Z,10.98
2022-11-28T06:58:41.948Z,12.18
2022-11-28T07:01:14.802Z,11.63
2022-11-28T07:03:42.361Z,11.02
2022-11-28T07:06:09.612Z,11.02
2022-11-28T07:08:37.459Z,15.77
2022-11-28T07:11:18.931Z,12.63
2022-11-28T07:13:46.977Z,14.45
2022-11-28T07:16:16.423Z,11.32
2022-11-28T07:18:43.854Z,11.25
2022-11-28T07:21:10.872Z,11.82
2022-11-28T07:23:37.690Z,11.60
2022-11-28T07:26:05.608Z,10.68
2022-11-28T07:28:33.967Z,9.82
2022-11-28T07:31:05.092Z,13.98
2022-11-28T07:33:32.505Z,13.05
2022-11-28T07:36:07.316Z,9.95
2022-11-28T07:38:34.409Z,13.45
2022-11-28T07:41:09.113Z,12.50
2022-11-28T07:43:36.041Z,11.57
2022-11-28T07:46:08.879Z,12.90
2022-11-28T07:48:36.904Z,12.27
2022-11-28T07:51:09.388Z,12.52
2022-11-28T07:53:36.834Z,12.35
2022-11-28T07:56:05.332Z,14.65
2022-11-28T07:58:32.541Z,12.73
2022-11-28T08:00:59.368Z,8.90
2022-11-28T08:03:25.975Z,13.68
2022-11-28T08:05:52.687Z,10.80
2022-11-28T08:08:20.223Z,11.07
2022-11-28T08:10:47.182Z,11.68
2022-11-28T08:13:14.081Z,12.52
2022-11-28T08:15:40.757Z,12.73
2022-11-28T08:18:08.016Z,11.48
2022-11-28T08:20:34.648Z,14.68
2022-11-28T08:23:01.237Z,14.98
2022-11-28T08:25:27.926Z,13.93
2022-11-28T08:27:54.509Z,11.05
2022-11-28T08:30:21.087Z,12.25
2022-11-28T08:32:47.688Z,14.23
2022-11-28T08:35:14.266Z,11.18
2022-11-28T08:37:40.960Z,11.57
2022-11-28T08:40:08.201Z,12.85
2022-11-28T08:42:35.166Z,13.82
2022-11-28T08:45:02.078Z,14.40
2022-11-28T08:47:28.682Z,10.50
2022-11-28T08:49:55.313Z,11.95
2022-11-28T08:52:22.411Z,9.95
2022-11-28T08:54:49.090Z,11.68
2022-11-28T08:57:15.724Z,12.05
2022-11-28T08:59:42.851Z,10.82
2022-11-28T09:02:12.589Z,12.95
2022-11-28T09:04:39.276Z,11.55
2022-11-28T09:07:05.941Z,11.43
2022-11-28T09:09:32.988Z,11.98
2022-11-28T09:11:59.749Z,11.80
2022-11-28T09:14:26.879Z,14.52
2022-11-28T09:16:53.518Z,12.00
2022-11-28T09:19:20.196Z,14.63
2022-11-28T09:21:46.791Z,11.30
2022-11-28T09:24:16.122Z,12.35
2022-11-28T09:26:42.846Z,13.00
2022-11-28T09:29:09.575Z,12.50
2022-11-28T09:31:36.152Z,15.02
2022-11-28T09:34:03.976Z,10.93
2022-11-28T09:36:32.668Z,10.85
2022-11-28T09:39:02.706Z,10.23
2022-11-28T09:41:51.929Z,13.52
2022-11-28T09:44:25.635Z,14.07
2022-11-28T09:46:57.903Z,14.35
2022-11-28T09:49:39.868Z,13.90
2022-11-28T09:52:24.937Z,12.52
2022-11-28T09:55:04.295Z,12.25
2022-11-28T09:57:39.045Z,13.73
2022-11-28T10:00:10.908Z,12.88
2022-11-28T10:02:48.974Z,13.23
2022-11-28T10:05:50.838Z,14.02
2022-11-28T10:08:30.303Z,15.18
2022-11-28T10:11:05.244Z,14.27
2022-11-28T10:14:09.160Z,17.55
2022-11-28T10:16:47.615Z,12.18
2022-11-28T10:19:46.120Z,13.05
2022-11-28T10:22:11.501Z,14.13
2022-11-28T10:24:43.537Z,13.80
2022-11-28T10:27:13.578Z,11.95
2022-11-28T10:29:53.814Z,13.50
2022-11-28T10:32:30.515Z,16.13
2022-11-28T10:35:02.076Z,14.50
2022-11-28T10:37:31.398Z,16.52
2022-11-28T10:40:12.665Z,14.68
2022-11-28T10:42:53.370Z,14.07
2022-11-28T10:45:49.506Z,13.82
2022-11-28T10:48:41.688Z,12.82
2022-11-28T10:51:29.698Z,12.60
2022-11-28T10:54:15.045Z,13.13
2022-11-28T11:00:12.151Z,12.82
2022-11-28T11:02:46.027Z,15.15
2022-11-28T11:05:16.448Z,12.80
2022-11-28T11:07:49.676Z,13.20
2022-11-28T11:10:23.534Z,13.70
2022-11-28T11:12:52.620Z,14.90
2022-11-28T11:15:29.785Z,11.93
2022-11-28T11:17:57.326Z,13.98
2022-11-28T11:20:27.049Z,14.32
2022-11-28T11:22:58.751Z,15.80
2022-11-28T11:25:27.857Z,12.88
2022-11-28T11:28:02.535Z,13.93
2022-11-28T11:30:42.754Z,16.70
2022-11-28T11:33:17.152Z,15.13
2022-11-28T11:35:47.407Z,16.80
2022-11-28T11:38:21.906Z,13.88
2022-11-28T11:40:50.249Z,14.18
2022-11-28T11:43:35.697Z,15.82
2022-11-28T11:46:11.131Z,12.40
2022-11-28T11:48:52.767Z,17.00
2022-11-28T11:51:27.105Z,12.27
2022-11-28T11:54:16.567Z,11.93
2022-11-28T11:56:46.593Z,11.90
2022-11-28T11:59:37.030Z,14.10
2022-11-28T12:02:19.507Z,14.80
2022-11-28T12:04:55.414Z,14.13
2022-11-28T12:07:31.060Z,13.75
2022-11-28T12:10:04.138Z,13.20
2022-11-28T12:12:36.135Z,17.85
2022-11-28T12:15:03.060Z,16.35
2022-11-28T12:17:48.922Z,12.65
2022-11-28T12:20:40.440Z,13.90
2022-11-28T12:23:28.946Z,12.98
2022-11-28T12:26:39.645Z,12.43
2022-11-28T12:29:14.237Z,14.20
2022-11-28T12:32:07.122Z,14.57
2022-11-28T12:34:55.748Z,16.63
2022-11-28T12:38:09.782Z,14.38
2022-11-28T12:41:02.867Z,16.38
2022-11-28T12:43:32.570Z,12.63
2022-11-28T12:46:30.231Z,13.50
2022-11-28T12:49:08.692Z,15.50
2022-11-28T12:51:50.085Z,17.80
2022-11-28T12:54:47.448Z,14.73
2022-11-28T12:57:33.339Z,17.67
2022-11-28T13:00:18.546Z,19.85
2022-11-28T13:06:12.581Z,17.10
2022-11-28T13:08:48.175Z,17.05
2022-11-28T13:11:24.637Z,16.38
2022-11-28T13:14:00.099Z,17.15
2022-11-28T13:16:40.944Z,17.77
2022-11-28T13:19:29.680Z,17.85
2022-11-28T13:22:09.428Z,13.95
2022-11-28T13:25:07.406Z,17.40
2022-11-28T13:27:44.683Z,17.92
2022-11-28T13:30:22.115Z,18.73
2022-11-28T13:33:01.288Z,17.40
2022-11-28T13:35:29.202Z,21.35
2022-11-28T13:41:52.604Z,16.05
2022-11-28T13:44:15.578Z,17.00
2022-11-28T13:46:46.096Z,17.77
2022-11-28T13:49:23.118Z,18.05
2022-11-28T13:52:18.740Z,16.80
2022-11-28T13:54:54.992Z,14.65
2022-11-28T13:57:38.862Z,15.98
2022-11-28T14:00:28.115Z,16.80
2022-11-28T14:02:59.599Z,16.23
2022-11-28T14:05:28.312Z,15.18
2022-11-28T14:07:57.063Z,17.17
2022-11-28T14:10:57.748Z,17.65
2022-11-28T14:13:37.211Z,17.27
2022-11-28T14:16:12.309Z,16.20
2022-11-28T14:18:58.256Z,14.73
2022-11-28T14:21:49.514Z,16.77
2022-11-28T14:24:27.800Z,16.20
2022-11-28T14:26:59.970Z,16.75
2022-11-28T14:29:39.900Z,15.35
2022-11-28T14:32:29.110Z,17.55
2022-11-28T14:34:54.798Z,15.55
2022-11-28T14:37:21.459Z,15.25
2022-11-28T14:39:49.403Z,15.82
2022-11-28T14:42:36.708Z,17.42
2022-11-28T14:45:45.984Z,15.27
2022-11-28T14:48:21.813Z,18.17
2022-11-28T14:50:54.561Z,13.63
2022-11-28T14:53:47.008Z,17.08
2022-11-28T14:56:13.546Z,17.13
2022-11-28T14:58:46.109Z,15.85
2022-11-28T15:04:00.283Z,15.85
2022-11-28T15:06:38.055Z,14.95
2022-11-28T15:09:17.666Z,15.55
2022-11-28T15:11:59.129Z,18.08
2022-11-28T15:14:27.953Z,19.50
2022-11-28T15:17:03.103Z,15.43
2022-11-28T15:19:38.577Z,14.75
2022-11-28T15:22:05.321Z,15.00
2022-11-28T15:24:31.914Z,15.00
2022-11-28T15:27:18.286Z,19.10
2022-11-28T15:29:54.054Z,16.17
2022-11-28T15:32:21.298Z,16.25
2022-11-28T15:34:58.186Z,16.33
2022-11-28T15:37:29.228Z,16.63
2022-11-28T15:39:56.609Z,15.25
2022-11-28T15:42:34.596Z,16.98
2022-11-28T15:45:26.182Z,16.52
2022-11-28T15:47:54.178Z,16.35
2022-11-28T15:50:27.166Z,15.65
2022-11-28T15:52:59.499Z,14.73
2022-11-28T15:55:31.591Z,16.23
2022-11-28T15:58:17.209Z,15.80
2022-11-28T16:00:47.195Z,13.85
2022-11-28T16:03:20.535Z,14.25
2022-11-28T16:05:48.840Z,18.25
2022-11-28T16:08:33.279Z,16.70
2022-11-28T16:11:03.012Z,15.80
2022-11-28T16:13:31.404Z,18.08
2022-11-28T16:16:01.308Z,14.73
2022-11-28T16:18:29.094Z,16.48
2022-11-28T16:21:00.728Z,14.82
2022-11-28T16:23:35.688Z,16.15
2022-11-28T16:26:25.606Z,16.17
2022-11-28T16:29:07.306Z,16.63
2022-11-28T16:31:34.628Z,17.13
2022-11-28T16:34:02.673Z,18.38
2022-11-28T16:36:37.364Z,15.18
2022-11-28T16:39:05.822Z,16.02
2022-11-28T16:41:33.484Z,20.13
2022-11-28T16:44:22.210Z,14.40
2022-11-28T16:46:54.974Z,14.68
2022-11-28T16:49:45.240Z,14.88
2022-11-28T16:52:21.225Z,14.77
2022-11-28T16:54:49.035Z,17.38
2022-11-28T16:57:15.829Z,15.73
2022-11-28T16:59:43.898Z,18.30
2022-11-28T17:02:19.055Z,20.13
2022-11-28T17:04:47.636Z,17.65
2022-11-28T17:07:18.111Z,17.15
2022-11-28T17:09:46.708Z,16.00
2022-11-28T17:12:19.822Z,16.08
2022-11-28T17:14:46.553Z,19.42
2022-11-28T17:17:15.629Z,16.70
2022-11-28T17:19:42.735Z,19.80
2022-11-28T17:22:15.631Z,18.75
2022-11-28T17:24:42.745Z,19.92
2022-11-28T17:27:12.358Z,19.17
2022-11-28T17:29:39.276Z,18.33
2022-11-28T17:32:06.559Z,16.20
2022-11-28T17:34:34.923Z,16.00
2022-11-28T17:37:02.819Z,16.23
2022-11-28T17:39:29.724Z,16.02
2022-11-28T17:41:57.420Z,15.68
2022-11-28T17:44:31.122Z,16.60
2022-11-28T17:47:00.341Z,16.92
2022-11-28T17:49:27.306Z,16.65
2022-11-28T17:51:55.350Z,19.50
2022-11-28T17:54:24.142Z,14.65
2022-11-28T17:56:52.547Z,17.60
2022-11-28T17:59:22.533Z,19.75
2022-11-28T18:01:49.686Z,18.30
2022-11-28T18:04:16.327Z,17.85
2022-11-28T18:06:44.464Z,18.17
2022-11-28T18:09:12.558Z,19.17
2022-11-28T18:11:40.091Z,20.80
2022-11-28T18:14:07.165Z,18.73
2022-11-28T18:16:35.895Z,21.17
2022-11-28T18:19:03.836Z,17.80
2022-11-28T18:21:30.706Z,18.10
2022-11-28T18:23:57.525Z,20.63
2022-11-28T18:26:26.044Z,18.95
2022-11-28T18:28:53.272Z,19.50
2022-11-28T18:31:25.649Z,28.10
2022-11-28T18:33:58.768Z,16.23
2022-11-28T18:36:29.579Z,18.77
2022-11-28T18:38:58.074Z,18.75
2022-11-28T18:41:25.425Z,20.65
2022-11-28T18:44:00.263Z,19.58
2022-11-28T18:46:28.865Z,19.85
2022-11-28T18:48:55.653Z,23.33
2022-11-28T18:51:28.411Z,23.02
2022-11-28T18:53:56.577Z,24.67
2022-11-28T18:56:24.490Z,23.83
2022-11-28T18:58:52.817Z,21.60
2022-11-28T19:01:21.981Z,21.42
2022-11-28T19:03:50.838Z,20.80
2022-11-28T19:06:17.433Z,16.67
2022-11-28T19:08:44.158Z,18.48
2022-11-28T19:11:14.750Z,19.35
2022-11-28T19:13:43.239Z,17.83
2022-11-28T19:16:14.296Z,18.83
2022-11-28T19:18:41.368Z,19.27
2022-11-28T19:21:10.637Z,20.60
2022-11-28T19:23:37.726Z,19.55
2022-11-28T19:26:06.167Z,19.77
2022-11-28T19:28:34.839Z,20.30
2022-11-28T19:31:09.026Z,19.98
2022-11-28T19:33:35.671Z,19.02
2022-11-28T19:36:06.927Z,21.00
2022-11-28T19:38:36.247Z,17.83
2022-11-28T19:41:14.267Z,18.23
2022-11-28T19:43:42.484Z,17.90
2022-11-28T19:46:09.771Z,17.50
2022-11-28T19:48:38.914Z,21.05
2022-11-28T19:51:12.546Z,18.80
2022-11-28T19:53:42.627Z,19.77
2022-11-28T19:56:13.664Z,18.63
2022-11-28T19:58:42.164Z,21.85
2022-11-28T20:01:21.282Z,17.42
2022-11-28T20:03:49.866Z,19.77
2022-11-28T20:06:22.728Z,20.30
2022-11-28T20:08:51.506Z,22.13
2022-11-28T20:11:25.147Z,24.13
2022-11-28T20:14:04.602Z,20.45
2022-11-28T20:16:35.297Z,21.00
2022-11-28T20:19:03.453Z,21.58
2022-11-28T20:21:33.481Z,18.88
2022-11-28T20:24:07.870Z,24.77
2022-11-28T20:26:40.970Z,23.92
2022-11-28T20:29:08.769Z,24.88
2022-11-28T20:31:38.555Z,25.63
2022-11-28T20:34:06.408Z,21.98
2022-11-28T20:36:33.393Z,23.85
2022-11-28T20:39:00.421Z,22.08
2022-11-28T20:41:28.396Z,19.90
2022-11-28T20:43:55.697Z,22.73
2022-11-28T20:46:32.147Z,24.75
2022-11-28T20:49:05.646Z,25.55
2022-11-28T20:51:34.185Z,22.02
2022-11-28T20:54:02.568Z,24.92
2022-11-28T20:56:31.591Z,24.88
2022-11-28T20:59:01.766Z,24.42
2022-11-28T21:01:33.423Z,22.75
2022-11-28T21:04:01.667Z,23.15
2022-11-28T21:06:28.329Z,26.08
2022-11-28T21:08:56.302Z,24.80
2022-11-28T21:11:55.657Z,23.95
2022-11-28T21:14:11.783Z,24.55
2022-11-28T21:16:38.465Z,27.67
2022-11-28T21:19:08.837Z,25.50
2022-11-28T21:21:38.287Z,28.40
2022-11-28T21:24:10.940Z,27.23
2022-11-28T21:26:42.385Z,27.52
2022-11-28T21:29:12.524Z,27.55
2022-11-28T21:31:43.478Z,25.27
2022-11-28T21:34:16.455Z,26.02
2022-11-28T21:36:43.423Z,23.33
2022-11-28T21:39:13.720Z,26.42
2022-11-28T21:41:40.619Z,26.55
2022-11-28T21:44:07.302Z,27.13
2022-11-28T21:46:33.922Z,25.55
2022-11-28T21:49:00.549Z,25.50
2022-11-28T21:51:28.730Z,27.15
2022-11-28T21:53:57.233Z,27.67
2022-11-28T21:56:24.801Z,25.60
2022-11-28T21:58:51.707Z,27.85
2022-11-28T22:01:20.170Z,25.35
2022-11-28T22:03:46.893Z,26.70
2022-11-28T22:06:19.823Z,26.23
2022-11-28T22:08:48.431Z,24.75
2022-11-28T22:11:15.841Z,23.63
2022-11-28T22:13:45.086Z,25.50
2022-11-28T22:16:14.050Z,23.17
2022-11-28T22:18:40.719Z,22.08
2022-11-28T22:21:22.553Z,24.58
2022-11-28T22:23:56.123Z,25.23
2022-11-28T22:26:22.804Z,23.70
2022-11-28T22:28:53.525Z,26.73
2022-11-28T22:31:21.126Z,26.77
2022-11-28T22:33:49.272Z,26.17
2022-11-28T22:36:17.980Z,24.92
2022-11-28T22:38:45.915Z,25.73
2022-11-28T22:41:16.009Z,28.23
2022-11-28T22:43:42.616Z,27.13
2022-11-28T22:46:10.313Z,23.90
2022-11-28T22:48:38.143Z,23.98
2022-11-28T22:51:10.127Z,25.45
2022-11-28T22:53:37.189Z,26.33
2022-11-28T22:56:09.072Z,27.60
2022-11-28T22:58:42.631Z,24.75
2022-11-28T23:01:30.669Z,24.73
2022-11-28T23:03:57.375Z,23.55
2022-11-28T23:06:30.037Z,25.20
2022-11-28T23:11:27.970Z,22.70
2022-11-28T23:13:54.989Z,24.75
2022-11-28T23:16:33.511Z,23.05
2022-11-28T23:19:02.445Z,25.80
2022-11-28T23:21:31.678Z,29.10
2022-11-28T23:23:58.460Z,28.83
2022-11-28T23:26:27.378Z,25.08
2022-11-28T23:28:54.384Z,23.13
2022-11-28T23:31:24.023Z,26.67
2022-11-28T23:33:51.516Z,21.50
2022-11-28T23:36:20.969Z,29.25
2022-11-28T23:38:49.341Z,26.23
2022-11-28T23:41:16.488Z,24.80
2022-11-28T23:43:43.124Z,24.25
2022-11-28T23:46:11.018Z,21.67
2022-11-28T23:48:38.199Z,28.60
2022-11-28T23:51:06.181Z,22.88
2022-11-28T23:53:34.095Z,26.00
2022-11-28T23:56:13.744Z,27.83
2022-11-28T23:58:41.349Z,24.80
